createdAt,value
2019-04-06T00:05:17.202Z,95552.59
2019-04-06T00:07:45.862Z,95555.53
2019-04-06T00:10:55.281Z,95552.80
2019-04-06T00:13:24.728Z,95549.99
2019-04-06T00:15:53.521Z,95544.69
2019-04-06T00:18:22.113Z,95540.16
2019-04-06T00:20:50.674Z,95546.91
2019-04-06T00:23:19.368Z,95539.58
2019-04-06T00:25:48.059Z,95541.10
2019-04-06T00:28:35.963Z,95540.09
2019-04-06T00:31:23.726Z,95533.23
2019-04-06T00:33:52.532Z,95533.16
2019-04-06T00:36:40.337Z,95530.84
2019-04-06T00:39:09.282Z,95523.72
2019-04-06T00:41:37.940Z,95528.05
2019-04-06T00:44:06.622Z,95528.92
2019-04-06T00:46:35.316Z,95528.66
2019-04-06T00:49:04.065Z,95526.38
2019-04-06T00:51:32.752Z,95527.04
2019-04-06T00:54:01.323Z,95524.59
2019-04-06T00:56:29.935Z,95515.70
2019-04-06T00:58:58.671Z,95512.34
2019-04-06T01:01:27.290Z,95510.03
2019-04-06T01:03:55.935Z,95510.44
2019-04-06T01:06:43.680Z,95512.58
2019-04-06T01:09:12.348Z,95514.33
2019-04-06T01:11:41.058Z,95509.41
2019-04-06T01:14:28.860Z,95520.59
2019-04-06T01:16:57.550Z,95513.96
2019-04-06T01:19:45.468Z,95518.44
2019-04-06T01:22:14.163Z,95528.36
2019-04-06T01:25:02.136Z,95528.84
2019-04-06T01:27:49.871Z,95529.63
2019-04-06T01:30:58.393Z,95532.95
2019-04-06T01:33:27.063Z,95542.69
2019-04-06T01:35:55.703Z,95530.16
2019-04-06T01:38:43.531Z,95529.02
2019-04-06T01:41:12.081Z,95528.27
2019-04-06T01:43:40.769Z,95527.26
2019-04-06T01:46:09.421Z,95528.39
2019-04-06T01:48:38.042Z,95526.03
2019-04-06T01:51:26.034Z,95528.67
2019-04-06T01:53:54.652Z,95526.50
2019-04-06T01:56:23.171Z,95528.33
2019-04-06T01:58:51.872Z,95529.59
2019-04-06T02:01:39.565Z,95527.79
2019-04-06T02:04:08.264Z,95522.75
2019-04-06T02:06:36.974Z,95519.94
2019-04-06T02:09:45.456Z,95516.48
2019-04-06T02:12:14.110Z,95519.37
2019-04-06T02:14:42.791Z,95510.23
2019-04-06T02:17:11.434Z,95505.93
2019-04-06T02:19:40.124Z,95514.59
2019-04-06T02:22:08.770Z,95504.17
2019-04-06T02:24:37.353Z,95500.14
2019-04-06T02:27:06.133Z,95499.09
2019-04-06T02:29:34.754Z,95498.57
2019-04-06T02:32:22.506Z,95495.29
2019-04-06T02:37:59.525Z,95488.66
2019-04-06T02:46:12.165Z,95476.73
2019-04-06T02:48:40.775Z,95472.16
2019-04-06T02:51:09.418Z,95471.30
2019-04-06T02:53:38.113Z,95468.49
2019-04-06T02:56:06.715Z,95475.31
2019-04-06T03:01:22.974Z,95494.32
2019-04-06T03:04:10.749Z,95491.98
2019-04-06T03:06:39.442Z,95500.14
2019-04-06T03:09:11.355Z,95493.83
2019-04-06T03:11:38.651Z,95497.14
2019-04-06T03:14:07.315Z,95491.77
2019-04-06T03:16:35.915Z,95490.98
2019-04-06T03:19:04.605Z,95499.45
2019-04-06T03:21:33.210Z,95495.65
2019-04-06T03:24:21.021Z,95493.92
2019-04-06T03:27:00.644Z,95494.91
2019-04-06T03:29:20.031Z,95497.94
2019-04-06T03:31:48.719Z,95493.14
2019-04-06T03:34:21.260Z,95499.72
2019-04-06T03:36:47.778Z,95500.49
2019-04-06T03:39:16.426Z,95500.44
2019-04-06T03:41:45.041Z,95496.16
2019-04-06T03:44:13.615Z,95492.62
2019-04-06T03:46:54.212Z,95497.94
2019-04-06T03:49:41.964Z,95503.09
2019-04-06T03:52:10.537Z,95500.25
2019-04-06T03:54:39.153Z,95497.44
2019-04-06T03:57:14.539Z,95491.87
2019-04-06T03:59:38.222Z,95495.19
2019-04-06T04:02:26.136Z,95490.35
2019-04-06T04:04:55.038Z,95494.95
2019-04-06T04:07:23.718Z,95494.42
2019-04-06T04:09:52.310Z,95488.25
2019-04-06T04:12:40.389Z,95480.89
2019-04-06T04:15:09.076Z,95494.81
2019-04-06T04:17:37.703Z,95489.44
2019-04-06T04:20:46.207Z,95489.21
2019-04-06T04:23:14.751Z,95484.41
2019-04-06T04:26:02.592Z,95485.19
2019-04-06T04:28:50.471Z,95479.38
2019-04-06T04:31:19.432Z,95481.41
2019-04-06T04:33:49.463Z,95493.33
2019-04-06T04:36:18.107Z,95485.72
2019-04-06T04:38:46.815Z,95491.34
2019-04-06T04:41:15.503Z,95495.67
2019-04-06T04:43:44.413Z,95496.23
2019-04-06T04:46:14.523Z,95492.97
2019-04-06T04:48:43.272Z,95500.61
2019-04-06T04:51:12.084Z,95501.38
2019-04-06T04:53:40.716Z,95492.45
2019-04-06T04:56:09.336Z,95501.11
2019-04-06T04:58:37.999Z,95502.38
2019-04-06T05:01:06.691Z,95504.44
2019-04-06T05:03:35.415Z,95506.50
2019-04-06T05:08:58.614Z,95509.04
2019-04-06T05:11:27.112Z,95511.86
2019-04-06T05:14:34.247Z,95511.33
2019-04-06T05:17:03.062Z,95513.13
2019-04-06T05:19:31.615Z,95511.89
2019-04-06T05:22:00.279Z,95523.09
2019-04-06T05:24:28.885Z,95520.81
2019-04-06T05:26:57.460Z,95518.27
2019-04-06T05:29:26.065Z,95519.30
2019-04-06T05:31:54.636Z,95518.04
2019-04-06T05:34:23.489Z,95517.81
2019-04-06T05:36:52.131Z,95518.06
2019-04-06T05:39:20.806Z,95520.36
2019-04-06T05:41:50.789Z,95522.17
2019-04-06T05:44:19.861Z,95520.88
2019-04-06T05:46:48.631Z,95521.38
2019-04-06T05:49:17.305Z,95517.28
2019-04-06T05:51:45.964Z,95527.47
2019-04-06T05:54:14.660Z,95525.20
2019-04-06T05:56:43.302Z,95534.13
2019-04-06T05:59:11.920Z,95532.08
2019-04-06T06:01:59.782Z,95537.44
2019-04-06T06:04:28.479Z,95539.47
2019-04-06T06:06:57.115Z,95548.67
2019-04-06T06:09:25.707Z,95550.96
2019-04-06T06:11:55.780Z,95545.84
2019-04-06T06:14:24.754Z,95544.80
2019-04-06T06:17:14.332Z,95532.78
2019-04-06T06:19:43.018Z,95537.89
2019-04-06T06:22:11.717Z,95534.06
2019-04-06T06:24:40.354Z,95541.16
2019-04-06T06:27:28.325Z,95534.50
2019-04-06T06:29:58.566Z,95537.33
2019-04-06T06:32:27.138Z,95532.73
2019-04-06T06:34:56.046Z,95538.83
2019-04-06T06:37:26.219Z,95531.12
2019-04-06T06:39:54.799Z,95532.69
2019-04-06T06:42:23.454Z,95539.82
2019-04-06T06:44:52.172Z,95537.97
2019-04-06T06:47:20.875Z,95534.63
2019-04-06T06:49:49.574Z,95534.30
2019-04-06T06:52:18.234Z,95539.15
2019-04-06T06:54:46.843Z,95529.38
2019-04-06T06:57:15.486Z,95537.77
2019-04-06T06:59:44.292Z,95534.59
2019-04-06T07:02:12.877Z,95535.56
2019-04-06T07:04:41.557Z,95536.80
2019-04-06T07:07:10.201Z,95536.00
2019-04-06T07:09:38.879Z,95534.16
2019-04-06T07:12:07.558Z,95535.91
2019-04-06T07:14:36.231Z,95534.82
2019-04-06T07:17:04.874Z,95530.18
2019-04-06T07:19:33.538Z,95538.58
2019-04-06T07:22:02.158Z,95536.16
2019-04-06T07:24:30.732Z,95534.34
2019-04-06T07:26:59.434Z,95530.74
2019-04-06T07:29:28.081Z,95539.03
2019-04-06T07:32:15.962Z,95528.64
2019-04-06T07:34:44.966Z,95533.13
2019-04-06T07:37:14.929Z,95531.44
2019-04-06T07:39:43.544Z,95534.66
2019-04-06T07:42:12.183Z,95539.77
2019-04-06T07:44:40.798Z,95530.79
2019-04-06T07:47:09.364Z,95534.08
2019-04-06T07:49:38.051Z,95537.27
2019-04-06T07:52:06.761Z,95540.54
2019-04-06T07:54:35.469Z,95535.17
2019-04-06T07:57:04.132Z,95533.62
2019-04-06T07:59:52.205Z,95530.78
2019-04-06T08:02:22.364Z,95538.14
2019-04-06T08:05:10.161Z,95533.70
2019-04-06T08:07:38.959Z,95533.36
2019-04-06T08:10:47.463Z,95528.98
2019-04-06T08:13:16.265Z,95526.41
2019-04-06T08:15:44.884Z,95527.72
2019-04-06T08:18:13.579Z,95531.42
2019-04-06T08:20:42.267Z,95530.34
2019-04-06T08:23:30.088Z,95524.29
2019-04-06T08:25:58.767Z,95525.31
2019-04-06T08:28:27.350Z,95528.04
2019-04-06T08:30:56.007Z,95523.38
2019-04-06T08:33:24.616Z,95524.34
2019-04-06T08:35:53.257Z,95522.50
2019-04-06T08:38:21.941Z,95519.09
2019-04-06T08:40:50.570Z,95519.34
2019-04-06T08:43:38.498Z,95518.69
2019-04-06T08:46:07.334Z,95524.48
2019-04-06T08:48:35.948Z,95520.36
2019-04-06T08:51:04.806Z,95519.64
2019-04-06T08:53:33.395Z,95511.45
2019-04-06T08:58:36.379Z,95515.42
2019-04-06T09:01:05.023Z,95516.32
2019-04-06T09:03:52.909Z,95517.91
2019-04-06T09:06:22.056Z,95510.31
2019-04-06T09:08:52.362Z,95505.11
2019-04-06T09:11:21.243Z,95505.03
2019-04-06T09:13:51.428Z,95510.56
2019-04-06T09:18:54.004Z,95500.78
2019-04-06T09:21:22.967Z,95495.91
2019-04-06T09:23:53.105Z,95489.96
2019-04-06T09:26:21.734Z,95486.91
2019-04-06T09:28:50.382Z,95473.87
2019-04-06T09:31:33.849Z,95477.21
2019-04-06T09:33:49.459Z,95472.16
2019-04-06T09:36:18.049Z,95467.73
2019-04-06T09:38:46.730Z,95466.03
2019-04-06T09:41:15.426Z,95474.13
2019-04-06T09:43:44.044Z,95464.53
2019-04-06T09:49:07.423Z,95461.30
2019-04-06T09:51:55.108Z,95461.77
2019-04-06T09:57:22.621Z,95456.03
2019-04-06T10:05:38.653Z,95443.78
2019-04-06T10:08:26.785Z,95446.13
2019-04-06T10:11:14.656Z,95449.05
2019-04-06T10:14:02.458Z,95444.34
2019-04-06T10:16:50.422Z,95447.09
2019-04-06T10:19:38.175Z,95443.12
2019-04-06T10:22:26.005Z,95441.47
2019-04-06T10:25:13.769Z,95436.45
2019-04-06T10:28:01.699Z,95434.57
2019-04-06T10:30:49.553Z,95426.80
2019-04-06T10:33:37.361Z,95423.03
2019-04-06T10:36:25.172Z,95418.92
2019-04-06T10:39:12.885Z,95418.25
2019-04-06T10:42:00.698Z,95418.25
2019-04-06T10:44:48.390Z,95415.42
2019-04-06T10:47:36.157Z,95416.83
2019-04-06T10:50:44.592Z,95413.92
2019-04-06T10:53:32.347Z,95407.87
2019-04-06T10:59:09.307Z,95409.83
2019-04-06T11:04:32.329Z,95393.14
2019-04-06T11:07:20.099Z,95398.06
2019-04-06T11:12:43.547Z,95399.73
2019-04-06T11:15:31.635Z,95393.69
2019-04-06T11:18:19.328Z,95389.27
2019-04-06T11:21:26.451Z,95387.16
2019-04-06T11:24:14.278Z,95380.41
2019-04-06T11:27:02.360Z,95375.28
2019-04-06T11:29:50.146Z,95372.61
2019-04-06T11:43:23.239Z,95361.69
2019-04-06T11:49:00.166Z,95367.17
2019-04-06T11:51:47.985Z,95377.11
2019-04-06T11:54:35.753Z,95382.01
2019-04-06T11:57:23.887Z,95375.08
2019-04-06T12:00:23.606Z,95381.59
2019-04-06T12:03:01.193Z,95374.09
2019-04-06T12:05:49.106Z,95377.49
2019-04-06T12:13:51.848Z,95386.58
2019-04-06T12:16:39.674Z,95392.60
2019-04-06T12:27:32.158Z,95392.75
2019-04-06T12:33:09.205Z,95381.99
2019-04-06T12:35:57.204Z,95392.47
2019-04-06T12:41:20.583Z,95390.22
2019-04-06T12:44:08.594Z,95391.18
2019-04-06T12:46:56.492Z,95391.86
2019-04-06T12:52:19.639Z,95391.69
2019-04-06T12:55:07.410Z,95389.53
2019-04-06T12:57:55.333Z,95387.49
2019-04-06T13:00:50.794Z,95392.81
2019-04-06T13:03:32.646Z,95387.13
2019-04-06T13:06:20.817Z,95384.66
2019-04-06T13:09:08.625Z,95383.19
2019-04-06T13:11:56.379Z,95380.52
2019-04-06T13:17:33.353Z,95379.86
2019-04-06T13:20:21.351Z,95372.17
2019-04-06T13:23:09.455Z,95377.81
2019-04-06T13:25:57.463Z,95375.27
2019-04-06T13:28:45.223Z,95375.76
2019-04-06T13:31:52.197Z,95370.55
2019-04-06T13:34:40.629Z,95368.33
2019-04-06T13:37:28.438Z,95360.17
2019-04-06T13:40:16.136Z,95362.13
2019-04-06T13:43:04.177Z,95361.42
2019-04-06T13:45:51.919Z,95366.63
2019-04-06T13:51:49.651Z,95351.95
2019-04-06T13:54:37.628Z,95347.64
2019-04-06T13:57:25.698Z,95348.28
2019-04-06T14:00:13.408Z,95341.81
2019-04-06T14:05:40.743Z,95330.98
2019-04-06T14:08:28.777Z,95327.77
2019-04-06T14:11:16.652Z,95320.80
2019-04-06T14:14:04.488Z,95311.85
2019-04-06T14:16:52.257Z,95311.88
2019-04-06T14:19:40.334Z,95319.45
2019-04-06T14:22:27.970Z,95310.93
2019-04-06T14:25:15.934Z,95303.48
2019-04-06T14:28:03.733Z,95302.56
2019-04-06T14:33:40.796Z,95309.68
2019-04-06T14:39:03.748Z,95309.84
2019-04-06T14:41:51.848Z,95306.84
2019-04-06T14:44:39.644Z,95309.20
2019-04-06T14:50:16.661Z,95303.97
2019-04-06T14:53:04.743Z,95302.55
2019-04-06T14:58:28.472Z,95300.84
2019-04-06T15:01:16.276Z,95306.13
2019-04-06T15:04:04.623Z,95298.89
2019-04-06T15:06:52.471Z,95294.87
2019-04-06T15:09:40.106Z,95294.97
2019-04-06T15:12:27.862Z,95297.76
2019-04-06T15:17:55.482Z,95294.35
2019-04-06T15:23:32.486Z,95289.41
2019-04-06T15:26:40.877Z,95284.17
2019-04-06T15:29:28.972Z,95280.23
2019-04-06T15:32:16.729Z,95278.25
2019-04-06T15:35:04.505Z,95270.53
2019-04-06T15:37:52.623Z,95269.78
2019-04-06T15:40:59.651Z,95278.69
2019-04-06T15:43:47.402Z,95276.55
2019-04-06T15:46:35.652Z,95272.52
2019-04-06T15:52:10.599Z,95263.41
2019-04-06T15:57:42.073Z,95258.79
2019-04-06T16:00:50.688Z,95257.09
2019-04-06T16:03:38.789Z,95265.39
2019-04-06T16:06:26.601Z,95259.06
2019-04-06T16:09:14.415Z,95262.16
2019-04-06T16:12:21.491Z,95261.56
2019-04-06T16:18:04.561Z,95258.52
2019-04-06T16:20:52.277Z,95264.64
2019-04-06T16:23:40.202Z,95262.40
2019-04-06T16:26:27.984Z,95259.06
2019-04-06T16:29:15.784Z,95265.78
2019-04-06T16:37:18.613Z,95269.23
2019-04-06T16:40:06.869Z,95266.61
2019-04-06T16:42:55.174Z,95270.39
2019-04-06T16:45:43.337Z,95272.66
2019-04-06T16:48:50.311Z,95271.41
2019-04-06T16:51:38.501Z,95268.70
2019-04-06T16:54:26.291Z,95264.77
2019-04-06T16:57:33.273Z,95263.57
2019-04-06T17:00:40.362Z,95274.13
2019-04-06T17:03:28.143Z,95271.00
2019-04-06T17:11:50.404Z,95275.13
2019-04-06T17:14:38.178Z,95273.70
2019-04-06T17:17:25.995Z,95270.25
2019-04-06T17:20:13.806Z,95276.28
2019-04-06T17:25:50.760Z,95267.20
2019-04-06T17:28:38.825Z,95273.84
2019-04-06T17:31:26.771Z,95273.85
2019-04-06T17:34:14.483Z,95274.06
2019-04-06T17:37:02.242Z,95273.02
2019-04-06T17:40:09.629Z,95270.51
2019-04-06T17:42:57.516Z,95266.59
2019-04-06T17:45:45.318Z,95270.08
2019-04-06T17:51:08.316Z,95273.47
2019-04-06T17:53:56.137Z,95276.21
2019-04-06T17:56:44.371Z,95267.84
2019-04-06T17:59:32.422Z,95273.61
2019-04-06T18:04:59.778Z,95269.90
2019-04-06T18:07:47.742Z,95268.91
2019-04-06T18:10:35.689Z,95272.64
2019-04-06T18:16:12.726Z,95284.73
2019-04-06T18:18:41.280Z,95287.14
2019-04-06T18:21:09.899Z,95288.44
2019-04-06T18:23:38.512Z,95290.19
2019-04-06T18:26:07.085Z,95288.81
2019-04-06T18:28:36.146Z,95294.73
2019-04-06T18:31:25.311Z,95297.77
2019-04-06T18:33:54.773Z,95296.55
2019-04-06T18:39:19.750Z,95305.23
2019-04-06T18:41:48.779Z,95314.46
2019-04-06T18:44:58.759Z,95316.60
2019-04-06T18:47:28.805Z,95325.38
2019-04-06T18:49:57.979Z,95328.31
2019-04-06T18:52:28.238Z,95330.56
2019-04-06T18:54:58.296Z,95320.80
2019-04-06T18:57:26.898Z,95329.13
2019-04-06T18:59:55.943Z,95331.88
2019-04-06T19:02:25.958Z,95335.19
2019-04-06T19:04:54.613Z,95335.80
2019-04-06T19:07:23.188Z,95333.16
2019-04-06T19:09:51.806Z,95330.81
2019-04-06T19:12:20.494Z,95330.84
2019-04-06T19:14:49.108Z,95341.85
2019-04-06T19:17:17.724Z,95336.83
2019-04-06T19:19:46.409Z,95334.69
2019-04-06T19:22:15.106Z,95339.91
2019-04-06T19:24:44.405Z,95345.14
2019-04-06T19:27:14.073Z,95342.46
2019-04-06T19:29:42.770Z,95341.00
2019-04-06T19:32:11.482Z,95342.07
2019-04-06T19:34:40.565Z,95345.05
2019-04-06T19:37:10.475Z,95341.64
2019-04-06T19:39:39.063Z,95341.75
2019-04-06T19:42:08.122Z,95341.63
2019-04-06T19:44:38.055Z,95336.72
2019-04-06T19:47:06.748Z,95341.72
2019-04-06T19:49:35.347Z,95339.94
2019-04-06T19:52:04.039Z,95340.61
2019-04-06T19:54:32.717Z,95341.43
2019-04-06T19:57:01.415Z,95337.19
2019-04-06T19:59:30.051Z,95336.53
2019-04-06T20:01:58.757Z,95339.45
2019-04-06T20:04:34.288Z,95340.34
2019-04-06T20:07:02.949Z,95336.77
2019-04-06T20:09:31.986Z,95330.58
2019-04-06T20:12:06.053Z,95327.20
2019-04-06T20:14:32.725Z,95331.48
2019-04-06T20:17:03.035Z,95323.74
2019-04-06T20:19:33.302Z,95318.16
2019-04-06T20:22:21.392Z,95323.63
2019-04-06T20:24:50.044Z,95324.41
2019-04-06T20:27:18.723Z,95322.36
2019-04-06T20:29:47.418Z,95320.34
2019-04-06T20:32:16.111Z,95318.07
2019-04-06T20:34:44.801Z,95315.50
2019-04-06T20:37:13.877Z,95316.25
2019-04-06T20:39:43.853Z,95318.28
2019-04-06T20:42:12.546Z,95314.33
2019-04-06T20:44:41.057Z,95307.39
2019-04-06T20:50:49.778Z,95319.38
2019-04-06T20:53:38.077Z,95319.37
2019-04-06T20:56:07.959Z,95309.70
2019-04-06T20:58:36.537Z,95305.87
2019-04-06T21:01:05.228Z,95306.61
2019-04-06T21:03:33.910Z,95304.12
2019-04-06T21:06:02.918Z,95300.27
2019-04-06T21:08:33.261Z,95301.88
2019-04-06T21:11:03.621Z,95301.83
2019-04-06T21:13:33.812Z,95305.78
2019-04-06T21:16:02.446Z,95301.77
2019-04-06T21:18:31.144Z,95304.40
2019-04-06T21:20:59.873Z,95299.30
2019-04-06T21:23:47.692Z,95313.39
2019-04-06T21:26:16.424Z,95307.06
2019-04-06T21:28:45.533Z,95306.09
2019-04-06T21:31:15.420Z,95311.05
2019-04-06T21:34:10.411Z,95311.45
2019-04-06T21:36:33.728Z,95312.27
2019-04-06T21:39:02.337Z,95314.05
2019-04-06T21:41:31.013Z,95314.81
2019-04-06T21:44:00.042Z,95318.38
2019-04-06T21:46:29.958Z,95317.74
2019-04-06T21:48:58.592Z,95319.41
2019-04-06T21:51:27.562Z,95319.58
2019-04-06T21:53:57.675Z,95318.12
2019-04-06T21:56:26.348Z,95317.75
2019-04-06T21:58:55.006Z,95321.20
2019-04-06T22:02:03.453Z,95320.34
2019-04-06T22:04:32.693Z,95325.34
2019-04-06T22:07:03.066Z,95319.88
2019-04-06T22:09:33.565Z,95329.05
2019-04-06T22:12:03.354Z,95331.62
2019-04-06T22:14:31.996Z,95328.42
2019-04-06T22:17:00.671Z,95330.93
2019-04-06T22:19:29.474Z,95326.34
2019-04-06T22:21:58.670Z,95323.59
2019-04-06T22:24:28.548Z,95327.68
2019-04-06T22:26:57.393Z,95337.09
2019-04-06T22:29:26.059Z,95332.05
2019-04-06T22:35:09.082Z,95325.67
2019-04-06T22:37:37.597Z,95336.58
2019-04-06T22:40:46.440Z,95333.56
2019-04-06T22:43:16.732Z,95328.20
2019-04-06T22:45:47.065Z,95325.86
2019-04-06T22:48:15.719Z,95329.75
2019-04-06T22:50:44.328Z,95327.41
2019-04-06T22:53:13.224Z,95329.24
2019-04-06T22:55:43.372Z,95327.74
2019-04-06T22:58:31.262Z,95329.50
2019-04-06T23:01:19.758Z,95324.28
2019-04-06T23:04:07.632Z,95321.56
2019-04-06T23:07:14.618Z,95315.95
2019-04-06T23:09:43.904Z,95320.91
2019-04-06T23:12:13.729Z,95318.12
2019-04-06T23:14:42.248Z,95317.98
2019-04-06T23:17:30.624Z,95316.20
2019-04-06T23:20:00.563Z,95319.83
2019-04-06T23:22:29.528Z,95312.63
2019-04-06T23:24:59.498Z,95317.75
2019-04-06T23:27:28.068Z,95313.75
2019-04-06T23:29:56.680Z,95317.59
2019-04-06T23:32:25.179Z,95321.22
2019-04-06T23:35:00.515Z,95312.02
2019-04-06T23:37:24.337Z,95308.28
2019-04-06T23:39:52.882Z,95296.36
2019-04-06T23:42:21.712Z,95306.11
2019-04-06T23:44:51.864Z,95316.48
2019-04-06T23:47:20.504Z,95315.88
2019-04-06T23:49:49.582Z,95312.39
2019-04-06T23:52:19.547Z,95313.02
2019-04-06T23:54:48.695Z,95317.43
2019-04-06T23:57:18.697Z,95315.67
2019-04-06T23:59:48.948Z,95306.44
